sensor_id;sensor_type;location;lat;lon;timestamp;P1;P2;P0
33948;PMS7003;20229;49.856;19.030;2022-12-18T00:03:50;37;30;18
33948;PMS7003;20229;49.856;19.030;2022-12-18T00:08:55;38;27;18
33948;PMS7003;20229;49.856;19.030;2022-12-18T00:14:15;40;32;20
33948;PMS7003;20229;49.856;19.030;2022-12-18T00:19:19;38;30;17
33948;PMS7003;20229;49.856;19.030;2022-12-18T00:24:41;31;24;16
33948;PMS7003;20229;49.856;19.030;2022-12-18T00:29:45;38;28;16
33948;PMS7003;20229;49.856;19.030;2022-12-18T00:35:07;41;30;17
33948;PMS7003;20229;49.856;19.030;2022-12-18T00:40:11;38;29;17
33948;PMS7003;20229;49.856;19.030;2022-12-18T00:45:33;39;27;16
33948;PMS7003;20229;49.856;19.030;2022-12-18T00:50:36;40;31;16
33948;PMS7003;20229;49.856;19.030;2022-12-18T00:55:59;40;27;12
33948;PMS7003;20229;49.856;19.030;2022-12-18T01:01:06;39;31;18
33948;PMS7003;20229;49.856;19.030;2022-12-18T01:06:25;34;27;16
33948;PMS7003;20229;49.856;19.030;2022-12-18T01:11:29;40;30;21
33948;PMS7003;20229;49.856;19.030;2022-12-18T01:16:51;45;32;19
33948;PMS7003;20229;49.856;19.030;2022-12-18T01:21:55;36;26;16
33948;PMS7003;20229;49.856;19.030;2022-12-18T01:27:17;45;34;20
33948;PMS7003;20229;49.856;19.030;2022-12-18T01:32:20;34;28;16
33948;PMS7003;20229;49.856;19.030;2022-12-18T01:37:43;40;28;15
33948;PMS7003;20229;49.856;19.030;2022-12-18T01:42:50;31;20;9
33948;PMS7003;20229;49.856;19.030;2022-12-18T01:48:09;27;19;6
33948;PMS7003;20229;49.856;19.030;2022-12-18T01:53:14;31;23;18
33948;PMS7003;20229;49.856;19.030;2022-12-18T01:58:37;34;23;13
33948;PMS7003;20229;49.856;19.030;2022-12-18T02:03:48;40;29;19
33948;PMS7003;20229;49.856;19.030;2022-12-18T02:09:03;37;28;18
33948;PMS7003;20229;49.856;19.030;2022-12-18T02:30:01;34;28;17
33948;PMS7003;20229;49.856;19.030;2022-12-18T02:35:09;30;21;12
33948;PMS7003;20229;49.856;19.030;2022-12-18T02:40:19;27;20;10
33948;PMS7003;20229;49.856;19.030;2022-12-18T02:45:26;30;21;13
33948;PMS7003;20229;49.856;19.030;2022-12-18T02:50:45;23;20;11
33948;PMS7003;20229;49.856;19.030;2022-12-18T02:56:05;27;22;10
33948;PMS7003;20229;49.856;19.030;2022-12-18T03:06:35;25;22;12
33948;PMS7003;20229;49.856;19.030;2022-12-18T03:11:45;28;21;12
33948;PMS7003;20229;49.856;19.030;2022-12-18T03:17:09;26;22;13
33948;PMS7003;20229;49.856;19.030;2022-12-18T03:22:18;26;17;9
33948;PMS7003;20229;49.856;19.030;2022-12-18T03:27:23;23;20;12
33948;PMS7003;20229;49.856;19.030;2022-12-18T03:32:31;30;23;13
33948;PMS7003;20229;49.856;19.030;2022-12-18T03:37:42;26;19;12
33948;PMS7003;20229;49.856;19.030;2022-12-18T03:48:14;20;14;4
33948;PMS7003;20229;49.856;19.030;2022-12-18T03:58:38;27;22;12
33948;PMS7003;20229;49.856;19.030;2022-12-18T04:03:46;31;22;15
33948;PMS7003;20229;49.856;19.030;2022-12-18T04:08:53;28;21;13
33948;PMS7003;20229;49.856;19.030;2022-12-18T04:14:12;18;17;7
33948;PMS7003;20229;49.856;19.030;2022-12-18T04:19:16;19;16;9
33948;PMS7003;20229;49.856;19.030;2022-12-18T04:24:38;25;21;13
33948;PMS7003;20229;49.856;19.030;2022-12-18T04:29:42;25;19;11
33948;PMS7003;20229;49.856;19.030;2022-12-18T04:35:04;31;20;11
33948;PMS7003;20229;49.856;19.030;2022-12-18T04:40:13;27;19;11
33948;PMS7003;20229;49.856;19.030;2022-12-18T04:45:33;25;21;11
33948;PMS7003;20229;49.856;19.030;2022-12-18T04:50:36;20;18;9
33948;PMS7003;20229;49.856;19.030;2022-12-18T05:01:09;23;20;11
33948;PMS7003;20229;49.856;19.030;2022-12-18T05:06:22;26;20;12
33948;PMS7003;20229;49.856;19.030;2022-12-18T05:11:25;20;18;10
33948;PMS7003;20229;49.856;19.030;2022-12-18T05:16:47;33;25;15
33948;PMS7003;20229;49.856;19.030;2022-12-18T05:21:51;25;19;9
33948;PMS7003;20229;49.856;19.030;2022-12-18T05:27:13;23;23;12
33948;PMS7003;20229;49.856;19.030;2022-12-18T05:32:17;26;18;9
33948;PMS7003;20229;49.856;19.030;2022-12-18T05:37:39;37;27;15
33948;PMS7003;20229;49.856;19.030;2022-12-18T05:42:43;39;30;18
33948;PMS7003;20229;49.856;19.030;2022-12-18T05:48:06;22;18;10
33948;PMS7003;20229;49.856;19.030;2022-12-18T05:53:10;29;22;13
33948;PMS7003;20229;49.856;19.030;2022-12-18T05:58:32;23;20;13
33948;PMS7003;20229;49.856;19.030;2022-12-18T06:03:36;24;21;13
33948;PMS7003;20229;49.856;19.030;2022-12-18T06:08:57;24;20;13
33948;PMS7003;20229;49.856;19.030;2022-12-18T06:14:01;30;22;13
33948;PMS7003;20229;49.856;19.030;2022-12-18T06:19:23;28;22;12
33948;PMS7003;20229;49.856;19.030;2022-12-18T06:24:26;23;19;13
33948;PMS7003;20229;49.856;19.030;2022-12-18T06:29:49;41;31;18
33948;PMS7003;20229;49.856;19.030;2022-12-18T06:34:53;32;27;16
33948;PMS7003;20229;49.856;19.030;2022-12-18T06:40:15;32;24;14
33948;PMS7003;20229;49.856;19.030;2022-12-18T06:45:18;31;27;17
33948;PMS7003;20229;49.856;19.030;2022-12-18T06:50:44;25;21;13
33948;PMS7003;20229;49.856;19.030;2022-12-18T06:55:47;23;19;10
33948;PMS7003;20229;49.856;19.030;2022-12-18T07:01:08;29;25;14
33948;PMS7003;20229;49.856;19.030;2022-12-18T07:06:14;25;22;10
33948;PMS7003;20229;49.856;19.030;2022-12-18T07:11:33;27;21;10
33948;PMS7003;20229;49.856;19.030;2022-12-18T07:16:37;25;19;10
33948;PMS7003;20229;49.856;19.030;2022-12-18T07:21:59;35;27;17
33948;PMS7003;20229;49.856;19.030;2022-12-18T07:27:03;33;27;15
33948;PMS7003;20229;49.856;19.030;2022-12-18T07:32:25;25;17;9
33948;PMS7003;20229;49.856;19.030;2022-12-18T07:37:28;20;16;10
33948;PMS7003;20229;49.856;19.030;2022-12-18T07:42:50;20;18;11
33948;PMS7003;20229;49.856;19.030;2022-12-18T07:47:54;22;14;7
33948;PMS7003;20229;49.856;19.030;2022-12-18T07:53:16;18;16;10
33948;PMS7003;20229;49.856;19.030;2022-12-18T07:58:20;23;18;11
33948;PMS7003;20229;49.856;19.030;2022-12-18T08:03:42;22;15;10
33948;PMS7003;20229;49.856;19.030;2022-12-18T08:08:45;22;18;10
33948;PMS7003;20229;49.856;19.030;2022-12-18T08:14:08;114;109;77
33948;PMS7003;20229;49.856;19.030;2022-12-18T08:19:12;147;143;99
33948;PMS7003;20229;49.856;19.030;2022-12-18T08:24:34;170;166;105
33948;PMS7003;20229;49.856;19.030;2022-12-18T08:29:37;143;138;90
33948;PMS7003;20229;49.856;19.030;2022-12-18T08:35:00;112;104;65
33948;PMS7003;20229;49.856;19.030;2022-12-18T08:40:04;94;88;56
33948;PMS7003;20229;49.856;19.030;2022-12-18T08:45:25;74;67;40
33948;PMS7003;20229;49.856;19.030;2022-12-18T08:50:29;74;66;41
33948;PMS7003;20229;49.856;19.030;2022-12-18T08:55:51;70;61;38
33948;PMS7003;20229;49.856;19.030;2022-12-18T09:01:04;62;53;33
33948;PMS7003;20229;49.856;19.030;2022-12-18T09:06:17;69;60;39
33948;PMS7003;20229;49.856;19.030;2022-12-18T09:11:22;77;66;43
33948;PMS7003;20229;49.856;19.030;2022-12-18T09:16:42;66;57;37
33948;PMS7003;20229;49.856;19.030;2022-12-18T09:21:45;72;63;44
33948;PMS7003;20229;49.856;19.030;2022-12-18T09:27:07;65;58;38
33948;PMS7003;20229;49.856;19.030;2022-12-18T09:32:10;71;64;43
33948;PMS7003;20229;49.856;19.030;2022-12-18T09:37:33;77;67;45
33948;PMS7003;20229;49.856;19.030;2022-12-18T09:42:36;73;66;43
33948;PMS7003;20229;49.856;19.030;2022-12-18T09:48:01;79;68;49
33948;PMS7003;20229;49.856;19.030;2022-12-18T09:53:13;48;46;37
33948;PMS7003;20229;49.856;19.030;2022-12-18T09:58:28;68;61;47
33948;PMS7003;20229;49.856;19.030;2022-12-18T10:03:36;74;70;51
33948;PMS7003;20229;49.856;19.030;2022-12-18T10:08:58;85;73;54
33948;PMS7003;20229;49.856;19.030;2022-12-18T10:14:09;98;90;65
33948;PMS7003;20229;49.856;19.030;2022-12-18T10:19:26;89;79;59
33948;PMS7003;20229;49.856;19.030;2022-12-18T10:24:48;31;21;11
33948;PMS7003;20229;49.856;19.030;2022-12-18T10:30:04;31;19;13
33948;PMS7003;20229;49.856;19.030;2022-12-18T10:40:26;29;21;12
33948;PMS7003;20229;49.856;19.030;2022-12-18T10:45:30;35;23;11
33948;PMS7003;20229;49.856;19.030;2022-12-18T10:50:41;34;26;10
33948;PMS7003;20229;49.856;19.030;2022-12-18T10:55:55;42;31;14
33948;PMS7003;20229;49.856;19.030;2022-12-18T11:01:08;41;32;18
33948;PMS7003;20229;49.856;19.030;2022-12-18T11:06:19;49;38;22
33948;PMS7003;20229;49.856;19.030;2022-12-18T11:11:33;38;29;17
33948;PMS7003;20229;49.856;19.030;2022-12-18T11:16:37;47;34;20
33948;PMS7003;20229;49.856;19.030;2022-12-18T11:22:00;31;23;15
33948;PMS7003;20229;49.856;19.030;2022-12-18T11:27:05;49;36;21
33948;PMS7003;20229;49.856;19.030;2022-12-18T11:32:29;45;36;21
33948;PMS7003;20229;49.856;19.030;2022-12-18T11:37:39;47;34;22
33948;PMS7003;20229;49.856;19.030;2022-12-18T11:42:54;48;35;22
33948;PMS7003;20229;49.856;19.030;2022-12-18T11:53:20;48;36;22
33948;PMS7003;20229;49.856;19.030;2022-12-18T12:07:17;50;38;22
33948;PMS7003;20229;49.856;19.030;2022-12-18T12:39:01;47;35;21
33948;PMS7003;20229;49.856;19.030;2022-12-18T12:49:29;50;38;21
33948;PMS7003;20229;49.856;19.030;2022-12-18T12:54:35;43;32;18
33948;PMS7003;20229;49.856;19.030;2022-12-18T13:36:31;87;75;47
33948;PMS7003;20229;49.856;19.030;2022-12-18T13:41:36;145;138;89
33948;PMS7003;20229;49.856;19.030;2022-12-18T13:46:44;158;152;101
33948;PMS7003;20229;49.856;19.030;2022-12-18T13:56:58;215;207;172
33948;PMS7003;20229;49.856;19.030;2022-12-18T14:07:21;104;92;75
33948;PMS7003;20229;49.856;19.030;2022-12-18T14:12:27;59;44;24
33948;PMS7003;20229;49.856;19.030;2022-12-18T14:17:46;62;48;29
33948;PMS7003;20229;49.856;19.030;2022-12-18T14:22:53;67;50;30
33948;PMS7003;20229;49.856;19.030;2022-12-18T14:33:22;73;54;33
33948;PMS7003;20229;49.856;19.030;2022-12-18T14:43:46;70;50;32
33948;PMS7003;20229;49.856;19.030;2022-12-18T14:48:51;71;49;33
33948;PMS7003;20229;49.856;19.030;2022-12-18T14:59:22;63;45;27
33948;PMS7003;20229;49.856;19.030;2022-12-18T15:04:38;57;38;20
33948;PMS7003;20229;49.856;19.030;2022-12-18T15:09:59;80;58;39
33948;PMS7003;20229;49.856;19.030;2022-12-18T15:15:04;70;49;31
33948;PMS7003;20229;49.856;19.030;2022-12-18T15:20:11;75;57;39
33948;PMS7003;20229;49.856;19.030;2022-12-18T15:25:34;71;54;36
33948;PMS7003;20229;49.856;19.030;2022-12-18T15:30:40;56;41;25
33948;PMS7003;20229;49.856;19.030;2022-12-18T15:35:56;69;52;34
33948;PMS7003;20229;49.856;19.030;2022-12-18T15:41:01;76;59;38
33948;PMS7003;20229;49.856;19.030;2022-12-18T15:46:22;58;44;27
33948;PMS7003;20229;49.856;19.030;2022-12-18T15:51:36;44;33;17
33948;PMS7003;20229;49.856;19.030;2022-12-18T15:56:48;62;46;30
33948;PMS7003;20229;49.856;19.030;2022-12-18T16:02:07;60;43;25
33948;PMS7003;20229;49.856;19.030;2022-12-18T16:07:16;58;41;27
33948;PMS7003;20229;49.856;19.030;2022-12-18T16:12:21;49;41;27
33948;PMS7003;20229;49.856;19.030;2022-12-18T16:17:40;56;44;29
33948;PMS7003;20229;49.856;19.030;2022-12-18T16:22:44;54;42;26
33948;PMS7003;20229;49.856;19.030;2022-12-18T16:28:06;60;44;24
33948;PMS7003;20229;49.856;19.030;2022-12-18T16:33:10;59;42;28
33948;PMS7003;20229;49.856;19.030;2022-12-18T16:38:33;51;37;22
33948;PMS7003;20229;49.856;19.030;2022-12-18T16:43:36;68;51;33
33948;PMS7003;20229;49.856;19.030;2022-12-18T16:48:59;54;39;24
33948;PMS7003;20229;49.856;19.030;2022-12-18T16:54:03;67;50;32
33948;PMS7003;20229;49.856;19.030;2022-12-18T16:59:25;67;51;32
33948;PMS7003;20229;49.856;19.030;2022-12-18T17:04:29;66;48;29
33948;PMS7003;20229;49.856;19.030;2022-12-18T17:09:51;51;36;14
33948;PMS7003;20229;49.856;19.030;2022-12-18T17:14:56;60;42;23
33948;PMS7003;20229;49.856;19.030;2022-12-18T17:20:17;78;57;38
33948;PMS7003;20229;49.856;19.030;2022-12-18T17:25:21;106;82;46
33948;PMS7003;20229;49.856;19.030;2022-12-18T17:30:44;98;79;49
33948;PMS7003;20229;49.856;19.030;2022-12-18T17:35:47;70;56;33
33948;PMS7003;20229;49.856;19.030;2022-12-18T17:41:10;65;49;30
33948;PMS7003;20229;49.856;19.030;2022-12-18T17:46:14;67;49;30
33948;PMS7003;20229;49.856;19.030;2022-12-18T17:51:36;59;43;28
33948;PMS7003;20229;49.856;19.030;2022-12-18T17:56:40;71;51;33
33948;PMS7003;20229;49.856;19.030;2022-12-18T18:02:03;68;50;31
33948;PMS7003;20229;49.856;19.030;2022-12-18T18:07:06;67;50;31
33948;PMS7003;20229;49.856;19.030;2022-12-18T18:12:29;69;51;32
33948;PMS7003;20229;49.856;19.030;2022-12-18T18:17:44;65;48;30
33948;PMS7003;20229;49.856;19.030;2022-12-18T18:22:55;70;52;33
33948;PMS7003;20229;49.856;19.030;2022-12-18T18:27:58;67;51;31
33948;PMS7003;20229;49.856;19.030;2022-12-18T18:33:21;68;48;31
33948;PMS7003;20229;49.856;19.030;2022-12-18T18:38:25;70;50;32
33948;PMS7003;20229;49.856;19.030;2022-12-18T18:43:47;64;46;29
33948;PMS7003;20229;49.856;19.030;2022-12-18T18:48:51;59;44;26
33948;PMS7003;20229;49.856;19.030;2022-12-18T18:54:13;59;43;27
33948;PMS7003;20229;49.856;19.030;2022-12-18T18:59:17;63;47;29
33948;PMS7003;20229;49.856;19.030;2022-12-18T19:04:40;58;45;27
33948;PMS7003;20229;49.856;19.030;2022-12-18T19:09:44;58;44;26
33948;PMS7003;20229;49.856;19.030;2022-12-18T19:15:06;61;46;28
33948;PMS7003;20229;49.856;19.030;2022-12-18T19:20:10;63;47;30
33948;PMS7003;20229;49.856;19.030;2022-12-18T19:25:35;74;52;32
33948;PMS7003;20229;49.856;19.030;2022-12-18T19:30:40;65;49;30
33948;PMS7003;20229;49.856;19.030;2022-12-18T19:35:58;61;42;26
33948;PMS7003;20229;49.856;19.030;2022-12-18T19:41:05;69;52;33
33948;PMS7003;20229;49.856;19.030;2022-12-18T19:46:24;60;45;26
33948;PMS7003;20229;49.856;19.030;2022-12-18T19:51:28;64;48;29
33948;PMS7003;20229;49.856;19.030;2022-12-18T19:56:50;62;46;27
33948;PMS7003;20229;49.856;19.030;2022-12-18T20:01:55;62;48;31
33948;PMS7003;20229;49.856;19.030;2022-12-18T20:07:16;61;44;28
33948;PMS7003;20229;49.856;19.030;2022-12-18T20:12:21;62;46;28
33948;PMS7003;20229;49.856;19.030;2022-12-18T20:17:43;61;46;29
33948;PMS7003;20229;49.856;19.030;2022-12-18T20:22:46;64;47;30
33948;PMS7003;20229;49.856;19.030;2022-12-18T20:28:09;58;44;28
33948;PMS7003;20229;49.856;19.030;2022-12-18T20:33:13;64;46;27
33948;PMS7003;20229;49.856;19.030;2022-12-18T20:38:35;52;38;17
33948;PMS7003;20229;49.856;19.030;2022-12-18T20:43:46;70;51;33
33948;PMS7003;20229;49.856;19.030;2022-12-18T20:49:01;67;50;32
33948;PMS7003;20229;49.856;19.030;2022-12-18T20:54:08;70;52;33
33948;PMS7003;20229;49.856;19.030;2022-12-18T20:59:27;65;47;30
33948;PMS7003;20229;49.856;19.030;2022-12-18T21:04:31;63;46;28
33948;PMS7003;20229;49.856;19.030;2022-12-18T21:09:54;66;47;28
33948;PMS7003;20229;49.856;19.030;2022-12-18T21:14:57;69;50;30
33948;PMS7003;20229;49.856;19.030;2022-12-18T21:20:20;56;40;26
33948;PMS7003;20229;49.856;19.030;2022-12-18T21:25:23;65;49;31
33948;PMS7003;20229;49.856;19.030;2022-12-18T21:30:46;68;50;32
33948;PMS7003;20229;49.856;19.030;2022-12-18T21:35:50;57;42;28
33948;PMS7003;20229;49.856;19.030;2022-12-18T21:41:12;62;46;28
33948;PMS7003;20229;49.856;19.030;2022-12-18T21:46:28;61;45;28
33948;PMS7003;20229;49.856;19.030;2022-12-18T21:51:38;60;46;31
33948;PMS7003;20229;49.856;19.030;2022-12-18T21:56:50;55;42;26
33948;PMS7003;20229;49.856;19.030;2022-12-18T22:02:06;62;47;29
33948;PMS7003;20229;49.856;19.030;2022-12-18T22:07:14;63;48;32
33948;PMS7003;20229;49.856;19.030;2022-12-18T22:12:31;56;42;26
33948;PMS7003;20229;49.856;19.030;2022-12-18T22:17:37;57;43;26
33948;PMS7003;20229;49.856;19.030;2022-12-18T22:22:57;55;42;25
33948;PMS7003;20229;49.856;19.030;2022-12-18T22:28:01;47;38;28
33948;PMS7003;20229;49.856;19.030;2022-12-18T22:33:23;49;38;21
33948;PMS7003;20229;49.856;19.030;2022-12-18T22:38:26;58;42;26
33948;PMS7003;20229;49.856;19.030;2022-12-18T22:43:49;50;37;21
33948;PMS7003;20229;49.856;19.030;2022-12-18T22:48:52;54;40;26
33948;PMS7003;20229;49.856;19.030;2022-12-18T22:54:15;56;43;27
33948;PMS7003;20229;49.856;19.030;2022-12-18T22:59:20;54;40;27
33948;PMS7003;20229;49.856;19.030;2022-12-18T23:04:41;54;41;26
33948;PMS7003;20229;49.856;19.030;2022-12-18T23:09:45;53;39;26
33948;PMS7003;20229;49.856;19.030;2022-12-18T23:15:07;55;42;26
33948;PMS7003;20229;49.856;19.030;2022-12-18T23:20:11;52;39;23
33948;PMS7003;20229;49.856;19.030;2022-12-18T23:25:33;46;35;20
33948;PMS7003;20229;49.856;19.030;2022-12-18T23:30:36;50;38;25
33948;PMS7003;20229;49.856;19.030;2022-12-18T23:36:00;49;39;23
33948;PMS7003;20229;49.856;19.030;2022-12-18T23:46:26;43;33;20
33948;PMS7003;20229;49.856;19.030;2022-12-18T23:51:31;57;40;26
33948;PMS7003;20229;49.856;19.030;2022-12-18T23:56:52;48;36;22
